Terminal Aerodrome Forecast
Issued by NWS

Home | Current Version | Previous Version | Text Only | Print | Product List | Glossary On
Versions: 1 2 3 4 5 6 7 8 9 10 11 12 13 14 15 16 17 18 19 20 21 22 23 24 25 26 27 28 29
000
FTUS45 KBOU 291759
TAFAPA
TAF
KAPA 291759Z 2918/3018 03012G20KT 1SM -SN BR BKN005 OVC010
     FM292000 03012G20KT 3SM -SN BR BKN008 OVC015
     FM292200 01012G20KT 5SM -SN BR BKN012 OVC022
     FM300000 34009KT P6SM SCT022 BKN035
      TEMPO 3000/3002 -SN OVC022
     FM300500 34010KT P6SM SCT040 BKN080
     FM301200 34010KT P6SM SCT090=

USA.gov is the U.S. government's official web portal to all federal, state and local government web resources and services.